aviador You're here:

LDSP Decoded Metar

SPLIT in CROATIA
Report Time2017-09-26 00:00:00
UTC Time2017-09-26 00:06:51
Flight Rules vfr VFR
Wind340° at 04 kt
W.Decomp.*RWY 05: 1.2 kt HW 3.8 kt LCW
W.Rank340° ranks 4
Current wind is below 340° avg. (5.8)
Visibility9999 m
Phenomena:N/A
Clouds:N/A
Expected CloudBase > 2,000 ft AGL from Temp-Dew spread
CeilingNone
Temp17°C (ISA +2)
Dew Point12°C (73% RH)
AAT16.2°C
QNH1018 hPa
Density Alt341 ft
Elevation69 ft
Report Wrong Elevation
Raw Report
METAR LDSP 260000Z AUTO 34004KT CAVOK 17/12 Q1018=

Extra information for LDSP:More info

Metar Taf Metar & Taf Last 4 Metars F.Rules Stats Wind Profile Meteogram Temp Stats Airport Information Weather charts Add Link Nearby VenuesMetar ALERT Operation Metar Decoded Social comments